»·PEaware :: N29143 KSNA-KSMO

N29143 :: KSNA-KSMO

FLIGHT INFORMATION

Flight Status: Arrived
Operator: Privately registered:
United States
More flights under this callsign
Pilot: Cannon L. (16231)
Aircraft: CESSNA 172 SKYHAWK
(C172)
More flights by this aircraft type
Origin: KSNA John Wayne-Orange Co
United States
Destination: KSMO Santa Monica Mun
United States
More flights between these airports :: More routes between these airports
Route: +SLI V8 POXKU V363 BAYJY V186 DARTS
File this flight plan on PilotEdge
Remarks: I-4 Rating
Altitude:
(Current/Filed)
6,000ft
Speed:
(Current/Filed)
115kts
Departed: 10-Aug-17 05:11 PM
Arrived: 10-Aug-17 05:55 PM
Distance/Time
Traveled:
35nm/0:44
Distance/Time
To Go:
Arrived

Flight Plot

Page will automatically refresh every two minutes.


Map Options




Map Legend


Flown Route
Filed Route
Departure Airport
Arrival Airport
Navaid (VOR, NDB)
Fix

Horizontal Profiles

Position Reports

Time Latitude Longitude Heading Altitude Ground
Speed
10-Aug-17 16:54 33.673814 -117.872190 118 60ft 0kts
10-Aug-17 16:55 33.673814 -117.872190 118 60ft 0kts
10-Aug-17 16:56 33.673814 -117.872190 118 60ft 0kts
10-Aug-17 16:57 33.673814 -117.872190 118 60ft 0kts
10-Aug-17 16:58 33.673814 -117.872190 118 60ft 0kts
10-Aug-17 16:59 33.673814 -117.872190 118 60ft 0kts
10-Aug-17 17:00 33.673814 -117.872190 118 60ft 0kts
10-Aug-17 17:01 33.673814 -117.872190 118 60ft 0kts
10-Aug-17 17:02 33.673814 -117.872190 118 60ft 0kts
10-Aug-17 17:03 33.673814 -117.872190 118 60ft 0kts
10-Aug-17 17:04 33.673814 -117.872190 118 60ft 0kts
10-Aug-17 17:05 33.673814 -117.872190 118 60ft 0kts
10-Aug-17 17:06 33.673814 -117.872190 118 60ft 0kts
10-Aug-17 17:08 33.673814 -117.872190 118 60ft 0kts
10-Aug-17 17:09 33.673814 -117.872190 118 60ft 0kts
10-Aug-17 17:10 33.673814 -117.872190 118 60ft 0kts
10-Aug-17 17:11 33.673793 -117.872126 104 60ft 5kts
10-Aug-17 17:12 33.677995 -117.868826 28 60ft 32kts
10-Aug-17 17:13 33.681247 -117.866462 90 60ft 0kts
10-Aug-17 17:14 33.679948 -117.866151 206 60ft 13kts
10-Aug-17 17:14 33.677081 -117.867924 209 60ft 51kts
10-Aug-17 17:15 33.660082 -117.886436 230 668ft 103kts
10-Aug-17 17:17 33.639590 -117.916356 232 1333ft 114kts
10-Aug-17 17:18 33.625171 -117.937957 243 1800ft 113kts
10-Aug-17 17:19 33.634141 -117.959918 318 2313ft 102kts
10-Aug-17 17:19 33.650355 -117.975487 333 2829ft 98kts
10-Aug-17 17:20 33.672683 -117.988762 337 3470ft 95kts
10-Aug-17 17:21 33.693464 -118.001114 338 4076ft 94kts
10-Aug-17 17:22 33.710830 -118.011518 337 4595ft 92kts
10-Aug-17 17:23 33.730156 -118.023036 338 5188ft 89kts
10-Aug-17 17:24 33.748459 -118.033885 336 5764ft 86kts
10-Aug-17 17:25 33.767723 -118.045242 335 6016ft 109kts
10-Aug-17 17:26 33.787346 -118.037501 70 6010ft 117kts
10-Aug-17 17:27 33.796031 -118.004714 69 6005ft 119kts
10-Aug-17 17:28 33.804590 -117.971710 70 6005ft 120kts
10-Aug-17 17:29 33.813078 -117.938862 71 6004ft 119kts
10-Aug-17 17:30 33.821880 -117.904272 70 6005ft 119kts
10-Aug-17 17:31 33.831007 -117.868612 69 6004ft 119kts
10-Aug-17 17:32 33.839820 -117.834217 69 6006ft 119kts
10-Aug-17 17:33 33.848651 -117.799972 71 6005ft 119kts
10-Aug-17 17:34 33.871489 -117.784389 5 6004ft 119kts
10-Aug-17 17:35 33.899863 -117.783533 1 6005ft 119kts
10-Aug-17 17:36 33.926169 -117.783617 1 6004ft 119kts
10-Aug-17 17:37 33.954500 -117.784027 0 6060ft 118kts
10-Aug-17 17:38 33.983458 -117.784581 1 6057ft 119kts
10-Aug-17 17:39 34.008356 -117.795218 299 6060ft 125kts
10-Aug-17 17:40 34.020528 -117.829315 294 6059ft 127kts
10-Aug-17 17:41 34.031263 -117.862485 294 6059ft 127kts
10-Aug-17 17:42 34.042674 -117.898487 287 6029ft 124kts
10-Aug-17 17:43 34.054466 -117.937437 286 5608ft 133kts
10-Aug-17 17:44 34.066733 -117.977335 286 5146ft 135kts
10-Aug-17 17:45 34.079074 -118.017461 284 4689ft 138kts
10-Aug-17 17:46 34.091579 -118.058245 284 4239ft 141kts
10-Aug-17 17:47 34.102824 -118.095071 284 4022ft 134kts
10-Aug-17 17:48 34.114570 -118.133213 285 4021ft 130kts
10-Aug-17 17:49 34.120467 -118.171666 270 4020ft 128kts
10-Aug-17 17:50 34.124078 -118.211161 271 4019ft 128kts
10-Aug-17 17:51 34.127533 -118.251178 271 4017ft 128kts
10-Aug-17 17:52 34.129912 -118.291941 247 3992ft 126kts
10-Aug-17 17:53 34.110752 -118.328421 233 3519ft 135kts
10-Aug-17 17:54 34.090153 -118.364565 224 3024ft 135kts
10-Aug-17 17:55 34.065001 -118.394441 221 2472ft 106kts
10-Aug-17 17:56 34.046823 -118.415562 222 1479ft 93kts
10-Aug-17 17:57 34.029185 -118.435873 221 571ft 78kts
10-Aug-17 17:58 34.018405 -118.448250 222 181ft 22kts
10-Aug-17 17:59 34.015672 -118.449949 188 181ft 0kts

Navigation Log

Ident Type
1. KSNA Airport
2. SLI Navaid
3. AHEIM Fix
4. OLLIE Fix
5. POXKU Fix
6. POXKU Fix
7. PRADO Fix
8. BAYJY Fix
9. BAYJY Fix
10. ADAMM Fix
11. PIRRO Fix
12. ITSME Fix
13. ELMOO Fix
14. PURMS Fix
15. DARTS Fix
16. KSMO Airport